createdAt,value
2018-11-22T12:17:38.255Z,30.80
2018-11-22T12:20:08.155Z,29.70
2018-11-22T12:22:36.573Z,29.53
2018-11-22T12:25:05.808Z,29.10
2018-11-22T12:27:34.195Z,29.10
2018-11-22T12:30:02.588Z,30.73
2018-11-22T12:32:33.652Z,29.90
2018-11-22T12:35:07.128Z,29.27
2018-11-22T12:37:43.158Z,29.80
2018-11-22T12:40:07.979Z,30.63
2018-11-22T12:42:36.361Z,29.77
2018-11-22T12:45:05.105Z,30.33
2018-11-22T12:47:34.046Z,29.13
2018-11-22T12:50:02.746Z,30.13
2018-11-22T12:52:31.127Z,29.33
2018-11-22T12:54:59.531Z,29.87
2018-11-22T12:57:27.935Z,31.07
2018-11-22T12:59:56.575Z,29.03
2018-11-22T13:02:24.952Z,29.37
2018-11-22T13:04:53.660Z,29.03
2018-11-22T13:07:22.039Z,29.20
2018-11-22T13:09:54.802Z,29.20
2018-11-22T13:12:23.175Z,29.30
2018-11-22T13:14:51.550Z,29.03
2018-11-22T13:17:19.898Z,30.53
2018-11-22T13:19:48.286Z,30.50
2018-11-22T13:22:16.667Z,29.33
2018-11-22T13:24:45.135Z,29.93
2018-11-22T13:27:13.528Z,30.20
2018-11-22T13:29:41.904Z,29.33
2018-11-22T13:32:10.282Z,30.03
2018-11-22T13:34:38.727Z,30.17
2018-11-22T13:37:07.122Z,29.40
2018-11-22T13:39:35.479Z,29.53
2018-11-22T13:42:03.838Z,28.10
2018-11-22T13:44:32.215Z,28.00
2018-11-22T13:47:00.727Z,28.30
2018-11-22T13:49:29.103Z,27.83
2018-11-22T13:51:57.504Z,27.70
2018-11-22T13:54:25.942Z,27.83
2018-11-22T13:56:54.408Z,26.33
2018-11-22T13:59:22.902Z,25.07
2018-11-22T14:01:51.318Z,26.50
2018-11-22T14:04:19.723Z,26.20
2018-11-22T14:06:48.108Z,26.33
2018-11-22T14:09:16.517Z,25.07
2018-11-22T14:11:44.918Z,26.53
2018-11-22T14:14:13.291Z,26.83
2018-11-22T14:16:41.706Z,28.73
2018-11-22T14:19:10.114Z,27.70
2018-11-22T14:21:38.525Z,26.03
2018-11-22T14:24:06.906Z,26.43
2018-11-22T14:26:35.283Z,25.57
2018-11-22T14:29:03.676Z,24.90
2018-11-22T14:31:32.066Z,26.67
2018-11-22T14:34:00.449Z,25.37
2018-11-22T14:36:28.919Z,25.90
2018-11-22T14:38:57.295Z,26.30
2018-11-22T14:41:25.666Z,25.80
2018-11-22T14:43:54.049Z,26.70
2018-11-22T14:46:22.459Z,26.27
2018-11-22T14:48:50.848Z,27.13
2018-11-22T14:51:39.212Z,26.20
2018-11-22T14:54:07.636Z,25.33
2018-11-22T14:56:36.010Z,26.23
2018-11-22T14:59:04.428Z,27.27
2018-11-22T15:01:32.828Z,27.07
2018-11-22T15:04:01.204Z,27.30
2018-11-22T15:06:29.586Z,25.20
2018-11-22T15:08:57.978Z,25.70
2018-11-22T15:11:26.783Z,26.23
2018-11-22T15:13:55.435Z,28.33
2018-11-22T15:16:23.829Z,29.83
2018-11-22T15:18:52.231Z,30.70
2018-11-22T15:21:20.609Z,29.43
2018-11-22T15:23:48.985Z,28.53
2018-11-22T15:26:17.383Z,27.80
2018-11-22T15:28:45.763Z,29.60
2018-11-22T15:31:14.175Z,28.73
2018-11-22T15:33:42.557Z,30.87
2018-11-22T15:36:10.940Z,29.13
2018-11-22T15:38:39.334Z,29.20
2018-11-22T15:41:07.746Z,31.03
2018-11-22T15:43:36.126Z,30.23
2018-11-22T15:46:04.511Z,28.70
2018-11-22T15:48:32.886Z,29.80
2018-11-22T15:51:01.267Z,30.47
2018-11-22T15:53:29.658Z,31.50
2018-11-22T15:55:58.047Z,31.20
2018-11-22T15:58:26.621Z,32.67
2018-11-22T16:00:55.024Z,31.10
2018-11-22T16:03:23.419Z,30.80
2018-11-22T16:05:51.811Z,30.10
2018-11-22T16:08:20.207Z,32.70
2018-11-22T16:10:48.595Z,29.87
2018-11-22T16:13:16.978Z,31.87
2018-11-22T16:15:49.073Z,32.37
2018-11-22T16:18:17.603Z,33.27
2018-11-22T16:20:46.104Z,33.37
2018-11-22T16:23:14.535Z,30.63
2018-11-22T16:25:42.970Z,33.00
2018-11-22T16:28:11.434Z,32.17
2018-11-22T16:30:40.581Z,32.17
2018-11-22T16:33:08.985Z,31.03
2018-11-22T16:35:37.570Z,31.60
2018-11-22T16:38:06.200Z,30.60
2018-11-22T16:40:34.695Z,29.97
2018-11-22T16:43:04.016Z,32.60
2018-11-22T16:45:33.746Z,30.70
2018-11-22T16:48:03.746Z,31.23
2018-11-22T16:50:33.358Z,31.07
2018-11-22T16:53:01.782Z,30.43
2018-11-22T16:55:30.326Z,32.53
2018-11-22T16:58:00.077Z,31.03
2018-11-22T17:00:32.734Z,30.33
2018-11-22T17:03:03.665Z,31.27
2018-11-22T17:05:32.216Z,31.30
2018-11-22T17:08:01.651Z,30.87
2018-11-22T17:10:31.116Z,29.37
2018-11-22T17:13:00.770Z,30.63
2018-11-22T17:15:30.857Z,30.73
2018-11-22T17:17:59.922Z,30.20
2018-11-22T17:20:29.546Z,29.03
2018-11-22T17:22:58.083Z,28.77
2018-11-22T17:25:28.155Z,29.60
2018-11-22T17:27:59.132Z,29.60
2018-11-22T17:30:31.317Z,29.10
2018-11-22T17:32:59.819Z,30.67
2018-11-22T17:35:28.961Z,31.17
2018-11-22T17:37:58.911Z,30.83
2018-11-22T17:40:28.743Z,31.27
2018-11-22T17:42:57.214Z,30.83
2018-11-22T17:45:28.418Z,31.87
2018-11-22T17:47:56.939Z,30.90
2018-11-22T17:50:27.110Z,30.30
2018-11-22T17:52:55.583Z,31.57
2018-11-22T17:55:25.531Z,32.07
2018-11-22T17:57:54.023Z,30.27
2018-11-22T18:00:25.043Z,31.53
2018-11-22T18:02:54.714Z,32.03
2018-11-22T18:05:27.035Z,32.63
2018-11-22T18:07:51.770Z,31.33
2018-11-22T18:10:21.655Z,32.40
2018-11-22T18:12:50.711Z,30.70
2018-11-22T18:15:20.154Z,31.07
2018-11-22T18:17:48.732Z,32.33
2018-11-22T18:20:19.419Z,34.10
2018-11-22T18:22:48.670Z,32.47
2018-11-22T18:25:18.290Z,30.87
2018-11-22T18:27:46.771Z,31.87
2018-11-22T18:30:17.305Z,30.97
2018-11-22T18:32:49.339Z,32.43
2018-11-22T18:35:17.736Z,33.27
2018-11-22T18:37:46.242Z,31.23
2018-11-22T18:40:16.643Z,32.77
2018-11-22T18:42:45.740Z,30.43
2018-11-22T18:45:15.570Z,32.03
2018-11-22T18:47:44.963Z,34.73
2018-11-22T18:50:17.421Z,32.87
2018-11-22T18:52:46.230Z,34.40
2018-11-22T18:55:14.717Z,31.90
2018-11-22T18:57:43.602Z,32.87
2018-11-22T19:00:16.071Z,32.30
2018-11-22T19:02:44.503Z,33.10
2018-11-22T19:05:13.975Z,30.70
2018-11-22T19:07:44.599Z,33.33
2018-11-22T19:10:15.415Z,32.47
2018-11-22T19:12:44.752Z,32.90
2018-11-22T19:15:15.440Z,34.07
2018-11-22T19:17:43.910Z,34.63
2018-11-22T19:20:15.655Z,35.13
2018-11-22T19:22:45.056Z,35.10
2018-11-22T19:25:13.475Z,35.50
2018-11-22T19:27:42.359Z,33.23
2018-11-22T19:30:14.527Z,34.53
2018-11-22T19:32:43.723Z,35.53
2018-11-22T19:35:13.046Z,34.03
2018-11-22T19:37:41.854Z,34.40
2018-11-22T19:40:14.390Z,33.40
2018-11-22T19:42:43.494Z,37.07
2018-11-22T19:45:13.503Z,35.43
2018-11-22T19:47:41.923Z,34.47
2018-11-22T19:50:13.328Z,35.17
2018-11-22T19:52:42.144Z,34.37
2018-11-22T19:55:13.060Z,36.07
2018-11-22T19:57:42.123Z,35.37
2018-11-22T20:00:11.917Z,37.23
2018-11-22T20:02:41.057Z,36.83
2018-11-22T20:05:11.295Z,35.83
2018-11-22T20:07:40.118Z,34.80
2018-11-22T20:10:11.299Z,37.53
2018-11-22T20:12:39.854Z,37.43
2018-11-22T20:15:08.462Z,36.90
2018-11-22T20:17:37.127Z,36.37
2018-11-22T20:20:05.703Z,35.93
2018-11-22T20:22:34.120Z,37.80
2018-11-22T20:25:02.648Z,40.27
2018-11-22T20:27:31.227Z,38.23
2018-11-22T20:29:59.838Z,38.33
2018-11-22T20:32:28.287Z,40.07
2018-11-22T20:34:56.755Z,39.63
2018-11-22T20:37:26.216Z,40.60
2018-11-22T20:39:55.591Z,39.37
2018-11-22T20:42:24.276Z,38.33
2018-11-22T20:44:53.507Z,38.23
2018-11-22T20:47:32.518Z,39.27
2018-11-22T20:50:07.466Z,40.53
2018-11-22T20:55:35.338Z,40.57
2018-11-22T20:58:05.272Z,40.80
2018-11-22T21:00:35.716Z,43.00
2018-11-22T21:03:04.157Z,45.50
2018-11-22T21:05:32.901Z,44.13
2018-11-22T21:08:01.563Z,42.73
2018-11-22T21:10:31.245Z,46.23
2018-11-22T21:12:59.699Z,46.20
2018-11-22T21:15:29.850Z,45.67
2018-11-22T21:18:01.363Z,46.47
2018-11-22T21:20:31.707Z,47.37
2018-11-22T21:23:00.990Z,46.70
2018-11-22T21:25:32.371Z,46.77
2018-11-22T21:28:02.512Z,48.13
2018-11-22T21:30:34.231Z,47.30
2018-11-22T21:33:03.679Z,50.30
2018-11-22T21:35:33.117Z,50.00
2018-11-22T21:38:03.172Z,50.87
2018-11-22T21:40:33.040Z,51.00
2018-11-22T21:43:01.820Z,51.77
2018-11-22T21:45:32.293Z,51.10
2018-11-22T21:48:01.271Z,50.90
2018-11-22T21:50:30.226Z,49.97
2018-11-22T21:52:59.162Z,51.07
2018-11-22T21:55:29.234Z,51.03
2018-11-22T21:57:59.559Z,50.70
2018-11-22T22:00:35.252Z,50.83
2018-11-22T22:03:06.070Z,50.00
2018-11-22T22:05:34.951Z,50.57
2018-11-22T22:08:04.095Z,48.10
2018-11-22T22:10:34.168Z,48.63
2018-11-22T22:13:03.324Z,52.07
2018-11-22T22:15:33.466Z,52.67
2018-11-22T22:18:02.300Z,51.70
2018-11-22T22:20:33.359Z,50.60
2018-11-22T22:23:02.280Z,52.03
2018-11-22T22:25:31.798Z,51.90
2018-11-22T22:28:00.789Z,52.30
2018-11-22T22:30:31.665Z,50.60
2018-11-22T22:33:01.754Z,50.83
2018-11-22T22:35:30.288Z,50.60
2018-11-22T22:37:59.215Z,49.30
2018-11-22T22:40:28.805Z,51.73
2018-11-22T22:42:58.252Z,48.10
2018-11-22T22:45:28.187Z,45.63
2018-11-22T22:47:56.970Z,47.77
2018-11-22T22:50:27.592Z,48.43
2018-11-22T22:52:57.796Z,49.57
2018-11-22T22:55:26.778Z,48.33
2018-11-22T22:57:55.368Z,46.10
2018-11-22T23:00:30.483Z,45.20
2018-11-22T23:03:05.820Z,42.07
2018-11-22T23:05:34.967Z,44.53
2018-11-22T23:08:03.766Z,42.83
2018-11-22T23:10:32.359Z,42.57
2018-11-22T23:13:01.325Z,45.20
2018-11-22T23:15:30.731Z,42.33
2018-11-22T23:17:59.439Z,40.70
2018-11-22T23:20:30.472Z,40.50
2018-11-22T23:22:59.259Z,42.60
2018-11-22T23:25:28.679Z,40.83
2018-11-22T23:27:57.612Z,40.97
2018-11-22T23:30:27.785Z,42.43
2018-11-22T23:32:58.796Z,43.30
2018-11-22T23:35:27.520Z,42.60
2018-11-22T23:37:56.191Z,46.73
2018-11-22T23:40:26.976Z,42.27
2018-11-22T23:42:55.463Z,40.67
2018-11-22T23:45:25.402Z,42.40
2018-11-22T23:47:54.069Z,40.60
2018-11-22T23:50:23.959Z,40.43
2018-11-22T23:52:54.898Z,42.00
2018-11-22T23:55:23.419Z,39.37
2018-11-22T23:57:52.227Z,40.07
